Time;durP1;ratioP1;P1;durP2;ratioP2;P2;SDS_P1;SDS_P2;PMS_P1;PMS_P2;Temp;Humidity;BMP_temperature;BMP_pressure;BME280_temperature;BME280_humidity;BME280_pressure;Samples;Min_cycle;Max_cycle;Signal;HPM_P1;HPM_P2
2023/12/04 08:25:38;;;;;;;0.20;0.20;;;;;;;15.58;44.44;75502.22;6244145;22;20058;-92
2023/12/04 08:33:38;;;;;;;0.20;0.20;;;;;;;15.95;45.41;75546.63;6214857;22;20024;-93
2023/12/04 08:36:04;;;;;;;0.20;0.20;;;;;;;15.38;46.09;75479.44;6189851;23;20080;-95
2023/12/04 08:41:16;;;;;;;0.20;0.20;;;;;;;15.53;44.61;75496.25;6273193;22;20023;-94
2023/12/04 09:12:47;;;;;;;0.20;0.20;;;;;;;15.70;45.16;75516.63;6213763;22;20092;-94
2023/12/04 09:15:12;;;;;;;0.20;0.20;;;;;;;16.12;44.40;75565.78;6190753;23;20005;-94
2023/12/04 09:17:39;;;;;;;0.20;0.20;;;;;;;15.78;43.95;75528.44;6190358;23;20001;-93
2023/12/04 09:22:48;;;;;;;0.20;0.20;;;;;;;15.53;45.47;75501.81;6212847;23;20025;-94
2023/12/04 09:25:14;;;;;;;0.20;0.20;;;;;;;16.14;44.05;75568.81;6188144;23;20608;-94
2023/12/04 09:27:39;;;;;;;0.20;0.20;;;;;;;16.72;42.50;75642.78;6215274;23;20382;-94
2023/12/04 09:30:06;;;;;;;0.20;0.20;;;;;;;16.19;42.40;75572.00;6189188;23;20088;-94
2023/12/04 09:32:31;;;;;;;0.20;0.20;;;;;;;17.06;41.42;75676.78;6193000;23;20039;-93
2023/12/04 09:35:00;;;;;;;0.20;0.20;;;;;;;17.16;41.36;75688.19;6193602;23;20000;-91
2023/12/04 09:37:25;;;;;;;0.20;0.20;;;;;;;16.59;41.50;75620.97;6190337;23;20340;-93
2023/12/04 09:39:50;;;;;;;0.20;0.20;;;;;;;16.96;41.14;75664.78;6188788;23;20084;-93
2023/12/04 09:42:18;;;;;;;0.20;0.20;;;;;;;17.19;39.67;75695.16;6190114;23;20377;-93
2023/12/04 09:44:45;;;;;;;0.20;0.20;;;;;;;16.21;41.04;75577.19;6189259;23;20005;-94
2023/12/04 09:47:11;;;;;;;0.20;0.20;;;;;;;16.57;41.51;75619.19;6187726;23;20019;-94
2023/12/04 09:49:37;;;;;;;0.20;0.20;;;;;;;16.49;41.70;75615.16;6186457;23;20476;-93
2023/12/04 09:52:04;;;;;;;0.20;0.20;;;;;;;16.45;42.32;75610.34;6186340;23;20004;-93
2023/12/04 09:54:30;;;;;;;0.20;0.20;;;;;;;16.74;42.28;75644.56;6186548;23;20538;-94
2023/12/04 09:56:56;;;;;;;0.20;0.20;;;;;;;16.85;40.74;75654.97;6186237;23;20051;-92
2023/12/04 09:59:25;;;;;;;0.20;0.20;;;;;;;16.38;41.76;75599.16;6186309;23;20031;-93
2023/12/04 10:01:51;;;;;;;0.20;0.20;;;;;;;16.32;42.59;75591.97;6187701;23;20033;-93
2023/12/04 10:04:17;;;;;;;0.20;0.20;;;;;;;15.70;41.80;75522.81;6189024;23;20110;-94
2023/12/04 10:06:43;;;;;;;0.20;0.20;;;;;;;15.78;41.26;75531.22;6188835;23;20079;-93
2023/12/04 10:09:11;;;;;;;0.20;0.20;;;;;;;15.56;41.42;75499.84;6188151;23;20001;-94
2023/12/04 10:11:41;;;;;;;0.20;0.20;;;;;;;15.29;42.92;75470.88;6186536;23;20322;-94
2023/12/04 10:14:20;;;;;;;0.20;0.20;;;;;;;15.24;43.55;75467.66;6186805;23;20474;-94
2023/12/04 10:16:46;;;;;;;0.20;0.20;;;;;;;15.18;43.52;75458.28;6189391;23;20433;-94
2023/12/04 10:19:31;;;;;;;0.20;0.20;;;;;;;15.13;42.39;75452.28;6168987;23;20005;-93
2023/12/04 10:22:00;;;;;;;0.20;0.20;;;;;;;15.23;43.12;75466.44;6157614;23;20009;-91
2023/12/04 10:27:11;;;;;;;0.20;0.20;;;;;;;15.65;43.52;75511.25;6244063;23;20031;-92
2023/12/04 10:29:52;;;;;;;0.20;0.20;;;;;;;15.59;42.64;75506.81;6218386;23;20004;-93
2023/12/04 10:52:36;;;;;;;0.20;0.20;;;;;;;16.75;37.98;75640.78;6237662;22;20082;-94
2023/12/04 10:55:01;;;;;;;0.20;0.20;;;;;;;17.35;36.24;75710.38;6218314;23;20070;-94
2023/12/04 10:57:30;;;;;;;0.20;0.20;;;;;;;17.52;35.64;75730.78;6217481;23;20004;-94
2023/12/04 10:59:58;;;;;;;0.20;0.20;;;;;;;16.90;37.64;75660.38;6218589;23;20008;-95
2023/12/04 11:02:26;;;;;;;0.20;0.20;;;;;;;16.70;36.57;75637.56;6244731;23;19996;-93
2023/12/04 11:15:47;;;;;;;0.20;0.20;;;;;;;15.20;38.10;75461.28;6213147;22;20032;-93
2023/12/04 11:18:15;;;;;;;0.20;0.20;;;;;;;15.38;37.69;75485.03;6188051;23;20116;-94
2023/12/04 11:23:35;;;;;;;0.20;0.20;;;;;;;15.61;37.82;75506.44;6242099;23;20582;-93
2023/12/04 11:28:49;;;;;;;0.20;0.20;;;;;;;16.03;37.29;75555.00;6213995;22;20033;-95
2023/12/04 11:31:15;;;;;;;0.20;0.20;;;;;;;16.32;36.39;75592.56;6188582;23;20008;-95
2023/12/04 11:33:41;;;;;;;0.20;0.20;;;;;;;16.00;35.93;75554.19;6188087;23;20032;-94
2023/12/04 11:36:11;;;;;;;0.20;0.20;;;;;;;16.27;36.85;75585.97;6189485;23;20005;-95
2023/12/04 11:38:38;;;;;;;0.20;0.20;;;;;;;16.17;37.89;75572.38;6190876;23;20008;-94
2023/12/04 11:41:21;;;;;;;0.20;0.20;;;;;;;16.80;34.54;75645.59;6190135;23;20028;-95
2023/12/04 11:43:47;;;;;;;0.20;0.20;;;;;;;16.43;35.74;75602.97;6192372;23;20052;-95
2023/12/04 11:46:14;;;;;;;0.20;0.20;;;;;;;17.12;33.95;75686.78;6194011;23;20005;-96
2023/12/04 11:48:39;;;;;;;0.20;0.20;;;;;;;17.05;35.04;75675.00;6194165;23;20000;-96
2023/12/04 11:51:08;;;;;;;0.20;0.20;;;;;;;16.35;36.77;75598.34;6191135;23;20039;-95
2023/12/04 11:56:17;;;;;;;0.20;0.20;;;;;;;15.51;37.23;75500.03;6244615;22;20024;-94
2023/12/04 11:58:43;;;;;;;0.20;0.20;;;;;;;15.74;37.84;75521.44;6221215;23;20062;-93
2023/12/04 12:01:09;;;;;;;0.20;0.20;;;;;;;15.82;37.11;75531.03;6220022;23;20004;-94
2023/12/04 12:03:34;;;;;;;0.20;0.20;;;;;;;15.57;36.95;75498.84;6219885;23;20064;-94
2023/12/04 12:06:00;;;;;;;0.20;0.20;;;;;;;15.46;36.64;75488.44;6220435;23;20416;-93
2023/12/04 12:08:28;;;;;;;0.20;0.20;;;;;;;15.33;37.29;75472.84;6219905;23;20357;-94
2023/12/04 12:10:54;;;;;;;0.20;0.20;;;;;;;15.26;36.97;75467.84;6221548;23;20214;-91
2023/12/04 12:13:25;;;;;;;0.20;0.20;;;;;;;15.06;37.88;75443.88;6195410;23;20011;-92
2023/12/04 13:07:27;;;;;;;0.20;0.20;;;;;;;14.42;40.12;75368.97;6243069;22;20406;-86
2023/12/04 13:09:53;;;;;;;0.20;0.20;;;;;;;14.52;39.50;75380.38;6193230;23;20016;-87
2023/12/04 13:12:18;;;;;;;0.20;0.20;;;;;;;14.83;38.46;75414.16;6218002;23;20001;-87
2023/12/04 13:14:44;;;;;;;0.20;0.20;;;;;;;14.47;39.18;75372.22;6217757;23;20007;-87
2023/12/04 13:17:12;;;;;;;0.20;0.20;;;;;;;14.64;39.53;75392.56;6217388;23;20119;-87
2023/12/04 13:19:38;;;;;;;0.20;0.20;;;;;;;14.68;39.31;75394.00;6218341;23;20139;-85
2023/12/04 13:22:04;;;;;;;0.20;0.20;;;;;;;14.61;40.87;75389.00;6195737;23;20020;-84
2023/12/04 13:24:30;;;;;;;0.20;0.20;;;;;;;14.72;39.97;75406.53;6246759;23;20004;-87
2023/12/04 13:26:55;;;;;;;0.20;0.20;;;;;;;14.63;40.60;75390.78;6220077;23;20050;-87
2023/12/04 13:35:46;;;;;;;0.20;0.20;;;;;;;15.02;39.03;75442.50;6244823;23;20343;-87
2023/12/04 13:38:13;;;;;;;0.20;0.20;;;;;;;14.94;37.90;75424.53;6218516;23;20086;-87
2023/12/04 13:40:39;;;;;;;0.20;0.20;;;;;;;14.76;38.34;75409.16;6218735;23;20070;-87
2023/12/04 13:45:51;;;;;;;0.20;0.20;;;;;;;14.65;38.81;75395.97;6245637;23;20447;-84
2023/12/04 13:48:18;;;;;;;0.20;0.20;;;;;;;14.76;38.92;75405.78;6219450;23;20004;-85
2023/12/04 13:54:15;;;;;;;0.20;0.20;;;;;;;13.91;38.73;75311.91;6220245;22;20024;-84
2023/12/04 13:59:27;;;;;;;0.20;0.20;;;;;;;14.06;39.69;75326.47;6191249;23;20023;-88
2023/12/04 14:01:56;;;;;;;0.20;0.20;;;;;;;14.31;39.51;75355.81;6160428;23;20339;-84
2023/12/04 14:24:16;;;;;;;0.20;0.20;;;;;;;13.98;41.10;75320.28;6186851;23;20056;-86
2023/12/04 14:26:42;;;;;;;0.20;0.20;;;;;;;13.78;41.85;75293.53;6156884;23;20009;-85
2023/12/04 14:29:07;;;;;;;0.20;0.20;;;;;;;13.51;42.38;75265.19;6131587;23;20013;-88
2023/12/04 14:31:36;;;;;;;0.20;0.20;;;;;;;13.68;43.07;75281.56;6155977;23;20027;-88
2023/12/04 14:34:03;;;;;;;0.20;0.20;;;;;;;13.82;41.97;75295.56;6156746;23;20119;-88
2023/12/04 14:36:31;;;;;;;0.20;0.20;;;;;;;13.77;42.50;75295.72;6156934;23;20017;-87
2023/12/04 14:38:57;;;;;;;0.20;0.20;;;;;;;13.81;41.48;75300.50;6157568;23;20012;-87
2023/12/04 14:41:23;;;;;;;0.20;0.20;;;;;;;13.67;42.47;75283.75;6157826;23;20005;-85
2023/12/04 14:50:39;;;;;;;0.20;0.20;;;;;;;13.47;43.40;75254.25;6187250;23;20120;-84
2023/12/04 15:22:41;;;;;;;0.20;0.20;;;;;;;12.51;44.99;75141.72;6185409;23;20043;-84
